KLFT/LFT METAR and TAF weather

Enter ICAO airport designator
Station Type Date Time Source
KLFT METAR 2019/02/16 16:53 UTC NOAA

KLFT 161653Z 01009KT 8SM BR OVC009 16/13 A2985 RMK AO2 SLP107 T01560128


Station Type Date Time Source
KLFT Decoded METAR 2019/02/16 16:53 UTC NOAA

LAFAYETTE REGIONAL AIRPORT, LA, United States (KLFT) 30-12N 092-00W 11M
Feb 16, 2019 - 11:53 AM EST / 2019.02.16 1653 UTC
Wind: from the N (010 degrees) at 10 MPH (9 KT):0
Visibility: 8 mile(s):0
Sky conditions: overcast
Weather: mist
Temperature: 60.1 F (15.6 C)
Dew Point: 55.0 F (12.8 C)
Relative Humidity: 83%
Pressure (altimeter): 29.85 in. Hg (1010 hPa)
ob: KLFT 161653Z 01009KT 8SM BR OVC009 16/13 A2985 RMK AO2 SLP107 T01560128
cycle: 17

Station Type Date Time Source
KLFT TAF 2019/02/16 12:22 UTC NOAA

TAF KLFT 161120Z 1612/1712 27005KT P6SM OVC004
TEMPO 1612/1614 6SM BR
FM161400 VRB05KT P6SM OVC007
FM161800 04006KT P6SM OVC010
FM170000 10005KT P6SM OVC007
FM170300 16005KT P6SM OVC003


Example: see airport list